createdAt,value
2019-03-10T00:00:49.228Z,8.10
2019-03-10T00:03:20.066Z,8.00
2019-03-10T00:05:50.021Z,7.90
2019-03-10T00:08:19.611Z,7.90
2019-03-10T00:10:48.811Z,7.80
2019-03-10T00:13:19.422Z,7.80
2019-03-10T00:15:48.676Z,7.80
2019-03-10T00:18:17.939Z,7.80
2019-03-10T00:20:48.693Z,7.80
2019-03-10T00:23:17.929Z,7.80
2019-03-10T00:25:48.273Z,7.80
2019-03-10T00:28:18.035Z,7.80
2019-03-10T00:30:47.319Z,7.80
2019-03-10T00:33:17.280Z,7.80
2019-03-10T00:35:48.160Z,7.80
2019-03-10T00:38:17.346Z,7.70
2019-03-10T00:41:09.681Z,7.80
2019-03-10T00:44:15.838Z,7.80
2019-03-10T00:47:22.089Z,7.80
2019-03-10T00:50:03.664Z,7.80
2019-03-10T00:52:42.015Z,7.80
2019-03-10T00:55:11.245Z,7.80
2019-03-10T00:57:40.428Z,7.80
2019-03-10T01:00:17.649Z,7.80
2019-03-10T01:02:46.851Z,7.70
2019-03-10T01:05:16.107Z,7.70
2019-03-10T01:07:45.380Z,7.70
2019-03-10T01:10:16.100Z,7.60
2019-03-10T01:12:45.547Z,7.60
2019-03-10T01:15:17.655Z,7.50
2019-03-10T01:17:47.072Z,7.40
2019-03-10T01:20:16.891Z,7.40
2019-03-10T01:22:46.147Z,7.30
2019-03-10T01:25:15.337Z,7.30
2019-03-10T01:27:44.646Z,7.30
2019-03-10T01:30:19.368Z,7.30
2019-03-10T01:33:24.087Z,7.30
2019-03-10T01:35:53.299Z,7.40
2019-03-10T01:38:22.479Z,7.50
2019-03-10T01:40:51.880Z,7.50
2019-03-10T01:43:21.084Z,7.50
2019-03-10T01:45:50.320Z,7.50
2019-03-10T01:48:19.614Z,7.60
2019-03-10T01:50:49.938Z,7.60
2019-03-10T01:53:25.482Z,7.60
2019-03-10T01:55:50.076Z,7.60
2019-03-10T01:58:19.408Z,7.60
2019-03-10T02:00:48.835Z,7.60
2019-03-10T02:03:18.020Z,7.60
2019-03-10T02:05:47.557Z,7.60
2019-03-10T02:08:16.915Z,7.60
2019-03-10T02:10:46.381Z,7.60
2019-03-10T02:13:15.623Z,7.60
2019-03-10T02:15:44.859Z,7.60
2019-03-10T02:18:14.199Z,7.70
2019-03-10T02:20:43.479Z,7.70
2019-03-10T02:23:12.747Z,7.70
2019-03-10T02:25:43.562Z,7.70
2019-03-10T02:28:12.820Z,7.60
2019-03-10T02:30:42.040Z,7.50
2019-03-10T02:33:11.293Z,7.50
2019-03-10T02:35:40.593Z,7.30
2019-03-10T02:38:09.781Z,7.20
2019-03-10T02:40:39.177Z,7.20
2019-03-10T02:43:08.429Z,7.10
2019-03-10T02:45:38.515Z,7.00
2019-03-10T02:48:08.752Z,6.90
2019-03-10T02:50:37.950Z,6.80
2019-03-10T02:53:07.374Z,6.80
2019-03-10T02:55:36.757Z,6.70
2019-03-10T02:58:06.085Z,6.70
2019-03-10T03:00:35.517Z,6.70
2019-03-10T03:03:05.038Z,6.60
2019-03-10T03:05:34.314Z,6.50
2019-03-10T03:08:03.573Z,6.50
2019-03-10T03:10:32.889Z,6.40
2019-03-10T03:13:02.114Z,6.30
2019-03-10T03:15:31.377Z,6.30
2019-03-10T03:18:00.548Z,6.30
2019-03-10T03:20:29.820Z,6.40
2019-03-10T03:22:58.987Z,6.30
2019-03-10T03:25:28.208Z,6.30
2019-03-10T03:27:57.481Z,6.30
2019-03-10T03:30:26.680Z,6.40
2019-03-10T03:32:55.889Z,6.40
2019-03-10T03:35:52.245Z,6.30
2019-03-10T03:38:33.558Z,6.30
2019-03-10T03:41:17.704Z,6.30
2019-03-10T03:43:46.917Z,6.20
2019-03-10T03:46:16.157Z,6.20
2019-03-10T03:48:45.785Z,6.20
2019-03-10T03:51:14.974Z,6.20
2019-03-10T03:53:44.229Z,6.10
2019-03-10T03:56:13.496Z,6.10
2019-03-10T03:58:42.729Z,6.10
2019-03-10T04:01:19.439Z,6.10
2019-03-10T04:03:48.611Z,6.10
2019-03-10T04:06:17.891Z,6.00
2019-03-10T04:08:47.085Z,6.00
2019-03-10T04:11:16.308Z,5.90
2019-03-10T04:13:45.602Z,6.00
2019-03-10T04:16:14.798Z,6.00
2019-03-10T04:18:44.031Z,6.00
2019-03-10T04:21:13.511Z,5.90
2019-03-10T04:23:42.719Z,5.90
2019-03-10T04:26:11.983Z,5.90
2019-03-10T04:28:41.196Z,5.90
2019-03-10T04:31:11.537Z,5.80
2019-03-10T04:33:40.847Z,5.80
2019-03-10T04:36:10.129Z,5.80
2019-03-10T04:38:42.385Z,5.70
2019-03-10T04:41:11.583Z,5.70
2019-03-10T04:43:40.814Z,5.70
2019-03-10T04:46:10.061Z,5.70
2019-03-10T04:48:39.293Z,5.70
2019-03-10T04:51:08.536Z,5.70
2019-03-10T04:53:37.801Z,5.70
2019-03-10T04:56:08.692Z,5.70
2019-03-10T04:58:39.515Z,5.70
2019-03-10T05:01:08.713Z,5.60
2019-03-10T05:03:37.946Z,5.60
2019-03-10T05:06:07.231Z,5.70
2019-03-10T05:08:37.522Z,5.70
2019-03-10T05:11:06.706Z,5.70
2019-03-10T05:13:35.960Z,5.70
2019-03-10T05:16:05.279Z,5.60
2019-03-10T05:18:34.567Z,5.60
2019-03-10T05:21:05.436Z,5.60
2019-03-10T05:23:37.270Z,5.60
2019-03-10T05:26:06.632Z,5.60
2019-03-10T05:28:38.782Z,5.60
2019-03-10T05:31:08.052Z,5.60
2019-03-10T05:33:37.270Z,5.60
2019-03-10T05:36:06.499Z,5.60
2019-03-10T05:38:35.707Z,5.60
2019-03-10T05:41:05.081Z,5.60
2019-03-10T05:43:34.279Z,5.60
2019-03-10T05:46:03.485Z,5.50
2019-03-10T05:48:32.687Z,5.60
2019-03-10T05:51:01.898Z,5.60
2019-03-10T05:53:31.161Z,5.60
2019-03-10T05:56:00.355Z,5.60
2019-03-10T05:58:29.590Z,5.60
2019-03-10T06:00:58.870Z,5.60
2019-03-10T06:03:28.288Z,5.60
2019-03-10T06:05:57.563Z,5.60
2019-03-10T06:08:26.904Z,5.60
2019-03-10T06:10:56.154Z,5.60
2019-03-10T06:13:25.345Z,5.60
2019-03-10T06:15:54.544Z,5.60
2019-03-10T06:18:23.792Z,5.60
2019-03-10T06:20:53.199Z,5.60
2019-03-10T06:23:22.391Z,5.60
2019-03-10T06:25:51.834Z,5.60
2019-03-10T06:28:21.081Z,5.60
2019-03-10T06:30:50.306Z,5.60
2019-03-10T06:33:19.525Z,5.60
2019-03-10T06:35:49.420Z,5.60
2019-03-10T06:38:18.785Z,5.60
2019-03-10T06:40:48.204Z,5.60
2019-03-10T06:43:17.629Z,5.60
2019-03-10T06:45:48.580Z,5.60
2019-03-10T06:48:19.413Z,5.60
2019-03-10T06:50:48.661Z,5.60
2019-03-10T06:53:17.920Z,5.60
2019-03-10T06:55:48.696Z,5.60
2019-03-10T06:58:17.987Z,5.60
2019-03-10T07:00:47.167Z,5.60
2019-03-10T07:03:16.383Z,5.60
2019-03-10T07:05:45.552Z,5.60
2019-03-10T07:08:14.891Z,5.60
2019-03-10T07:10:44.148Z,5.60
2019-03-10T07:13:13.343Z,5.60
2019-03-10T07:15:42.571Z,5.60
2019-03-10T07:18:11.791Z,5.60
2019-03-10T07:20:42.715Z,5.60
2019-03-10T07:23:14.869Z,5.70
2019-03-10T07:25:44.103Z,5.60
2019-03-10T07:28:15.097Z,5.60
2019-03-10T07:30:45.981Z,5.70
2019-03-10T07:33:26.188Z,5.70
2019-03-10T07:36:05.866Z,5.70
2019-03-10T07:38:53.207Z,5.70
2019-03-10T07:41:29.932Z,5.70
2019-03-10T07:44:06.531Z,5.60
2019-03-10T07:46:43.403Z,5.70
2019-03-10T07:49:23.141Z,5.80
2019-03-10T07:51:56.548Z,5.80
2019-03-10T07:54:30.186Z,5.80
2019-03-10T07:57:17.715Z,5.70
2019-03-10T08:00:05.012Z,5.80
2019-03-10T08:02:38.976Z,5.80
2019-03-10T08:05:09.789Z,5.80
2019-03-10T08:07:57.068Z,5.80
2019-03-10T08:10:33.809Z,5.90
2019-03-10T08:13:07.587Z,6.00
2019-03-10T08:15:53.782Z,6.00
2019-03-10T08:18:27.404Z,6.00
2019-03-10T08:21:15.281Z,6.10
2019-03-10T08:24:05.408Z,6.10
2019-03-10T08:26:45.531Z,6.20
2019-03-10T08:29:28.317Z,6.20
2019-03-10T08:32:05.153Z,6.30
2019-03-10T08:34:38.823Z,6.30
2019-03-10T08:37:15.692Z,6.40
2019-03-10T08:39:46.537Z,6.40
2019-03-10T08:42:20.569Z,6.50
2019-03-10T08:44:52.894Z,6.50
2019-03-10T08:47:24.818Z,6.60
2019-03-10T08:50:01.523Z,6.60
2019-03-10T08:52:34.839Z,6.60
2019-03-10T08:55:07.592Z,6.70
2019-03-10T08:57:44.227Z,6.70
2019-03-10T09:00:15.537Z,6.70
2019-03-10T09:02:52.536Z,6.80
2019-03-10T09:05:23.339Z,6.80
2019-03-10T09:08:00.284Z,6.80
2019-03-10T09:10:37.093Z,6.90
2019-03-10T09:13:10.700Z,6.90
2019-03-10T09:15:41.599Z,7.00
2019-03-10T09:18:13.982Z,7.00
2019-03-10T09:20:47.505Z,7.10
2019-03-10T09:23:21.346Z,7.10
2019-03-10T09:25:52.149Z,7.10
2019-03-10T09:28:22.989Z,7.20
2019-03-10T09:30:53.875Z,7.30
2019-03-10T09:33:27.780Z,7.40
2019-03-10T09:36:01.700Z,7.30
2019-03-10T09:38:39.849Z,7.40
2019-03-10T09:41:19.747Z,7.60
2019-03-10T09:44:05.915Z,7.80
2019-03-10T09:46:53.407Z,8.10
2019-03-10T09:49:27.194Z,8.50
2019-03-10T09:52:14.353Z,8.80
2019-03-10T09:55:04.098Z,9.10
2019-03-10T09:57:40.586Z,9.30
2019-03-10T10:00:12.918Z,9.50
2019-03-10T10:02:49.606Z,9.70
2019-03-10T10:05:23.490Z,9.90
2019-03-10T10:08:03.551Z,10.10
2019-03-10T10:10:34.462Z,10.50
2019-03-10T10:13:20.015Z,10.80
2019-03-10T10:16:02.704Z,11.20
2019-03-10T10:18:33.530Z,11.40
2019-03-10T10:21:16.476Z,11.30
2019-03-10T10:23:50.217Z,11.20
2019-03-10T10:26:30.708Z,11.00
2019-03-10T10:29:08.455Z,10.90
2019-03-10T10:31:43.896Z,11.00
2019-03-10T10:34:17.300Z,11.30
2019-03-10T10:36:51.397Z,11.40
2019-03-10T10:39:22.213Z,11.30
2019-03-10T10:41:59.059Z,11.50
2019-03-10T10:44:30.024Z,11.60
2019-03-10T10:47:18.843Z,11.60
2019-03-10T10:49:49.658Z,11.60
2019-03-10T10:52:23.470Z,11.70
2019-03-10T10:54:54.432Z,11.60
2019-03-10T10:57:27.982Z,11.40
2019-03-10T11:00:04.619Z,11.20
2019-03-10T11:02:38.377Z,10.90
2019-03-10T11:05:09.874Z,10.90
2019-03-10T11:07:40.889Z,10.90
2019-03-10T11:10:24.696Z,10.90
2019-03-10T11:12:58.457Z,10.80
2019-03-10T11:15:31.977Z,10.80
2019-03-10T11:18:09.488Z,10.80
2019-03-10T11:20:38.104Z,10.90
2019-03-10T11:23:08.954Z,10.90
2019-03-10T11:25:39.901Z,10.90
2019-03-10T11:28:15.069Z,10.90
2019-03-10T11:30:49.043Z,10.90
2019-03-10T11:33:28.964Z,11.00
2019-03-10T11:36:15.980Z,11.00
2019-03-10T11:39:02.788Z,11.00
2019-03-10T11:41:37.948Z,10.80
2019-03-10T11:44:11.471Z,10.60
2019-03-10T11:46:58.363Z,10.30
2019-03-10T11:49:34.983Z,10.10
2019-03-10T11:52:05.803Z,10.00
2019-03-10T11:54:53.110Z,10.00
2019-03-10T11:57:29.722Z,10.10
2019-03-10T12:00:16.536Z,10.10
2019-03-10T12:03:03.505Z,10.20
2019-03-10T12:05:34.453Z,10.30
2019-03-10T12:08:14.346Z,10.30
2019-03-10T12:10:45.166Z,10.20
2019-03-10T12:13:14.499Z,10.00
2019-03-10T12:15:43.746Z,9.90
2019-03-10T12:18:12.952Z,9.80
2019-03-10T12:20:42.197Z,9.80
2019-03-10T12:23:11.460Z,10.10
2019-03-10T12:25:40.657Z,10.00
2019-03-10T12:28:09.836Z,9.70
2019-03-10T12:30:39.076Z,9.40
2019-03-10T12:33:08.264Z,9.20
2019-03-10T12:35:37.478Z,9.00
2019-03-10T12:38:06.725Z,9.00
2019-03-10T12:40:35.974Z,8.90
2019-03-10T12:43:05.176Z,8.80
2019-03-10T12:45:34.332Z,8.80
2019-03-10T12:48:03.546Z,8.70
2019-03-10T12:50:32.796Z,8.60
2019-03-10T12:53:02.033Z,8.40
2019-03-10T12:55:31.193Z,8.40
2019-03-10T12:58:00.375Z,8.40
2019-03-10T13:00:31.183Z,8.40
2019-03-10T13:03:00.441Z,8.30
2019-03-10T13:05:29.667Z,8.40
2019-03-10T13:07:58.946Z,8.40
2019-03-10T13:10:28.157Z,8.40
2019-03-10T13:12:57.391Z,8.40
2019-03-10T13:15:26.605Z,8.50
2019-03-10T13:17:55.973Z,8.40
2019-03-10T13:20:28.479Z,8.40
2019-03-10T13:22:56.093Z,8.30
2019-03-10T13:25:25.280Z,8.20
2019-03-10T13:27:54.553Z,8.20
2019-03-10T13:30:23.797Z,8.30
2019-03-10T13:32:53.061Z,8.30
2019-03-10T13:35:22.348Z,8.30
2019-03-10T13:37:51.619Z,8.20
2019-03-10T13:40:20.871Z,8.20
2019-03-10T13:42:50.135Z,8.20
2019-03-10T13:45:19.686Z,8.20
2019-03-10T13:47:49.955Z,8.10
2019-03-10T13:50:19.153Z,8.00
2019-03-10T13:52:48.339Z,8.00
2019-03-10T13:55:17.555Z,8.10
2019-03-10T13:57:47.211Z,8.20
2019-03-10T14:00:22.415Z,8.20
2019-03-10T14:02:51.755Z,8.10
2019-03-10T14:05:20.946Z,8.20
2019-03-10T14:07:50.277Z,8.20
2019-03-10T14:10:19.533Z,8.00
2019-03-10T14:12:50.212Z,7.90
2019-03-10T14:15:19.475Z,7.60
2019-03-10T14:17:48.728Z,7.30
2019-03-10T14:20:19.557Z,7.00
2019-03-10T14:22:48.748Z,6.80
2019-03-10T14:25:18.064Z,6.60
2019-03-10T14:27:47.245Z,6.60
2019-03-10T14:30:17.693Z,6.50
2019-03-10T14:32:48.665Z,6.50
2019-03-10T14:35:17.928Z,6.40
2019-03-10T14:37:47.162Z,6.30
2019-03-10T14:40:17.586Z,6.30
2019-03-10T14:42:46.765Z,6.20
2019-03-10T14:45:17.009Z,6.20
2019-03-10T14:47:46.431Z,6.10
2019-03-10T14:50:17.793Z,6.00
2019-03-10T14:52:47.018Z,6.00
2019-03-10T14:55:18.542Z,5.90
2019-03-10T14:57:48.694Z,5.90
2019-03-10T15:00:23.901Z,5.90
2019-03-10T15:02:53.195Z,5.80
2019-03-10T15:05:22.497Z,5.70
2019-03-10T15:07:53.333Z,5.60
2019-03-10T15:10:22.585Z,5.60
2019-03-10T15:12:51.778Z,5.60
2019-03-10T15:15:22.936Z,5.60
2019-03-10T15:17:52.420Z,5.70
2019-03-10T15:20:22.103Z,5.60
2019-03-10T15:22:51.441Z,5.70
2019-03-10T15:25:21.727Z,5.70
2019-03-10T15:27:51.692Z,5.80
2019-03-10T15:30:24.135Z,5.80
2019-03-10T15:32:53.390Z,5.80
2019-03-10T15:35:22.575Z,5.90
2019-03-10T15:37:51.802Z,5.90
2019-03-10T15:40:22.604Z,5.80
2019-03-10T15:42:51.848Z,5.80
2019-03-10T15:45:21.112Z,5.80
2019-03-10T15:47:50.491Z,5.80
2019-03-10T15:50:23.780Z,5.90
2019-03-10T15:52:54.415Z,5.90
2019-03-10T15:55:24.714Z,6.00
2019-03-10T15:57:54.054Z,6.00
2019-03-10T16:00:25.452Z,6.00
2019-03-10T16:02:54.695Z,6.00
2019-03-10T16:05:24.150Z,6.00
2019-03-10T16:07:53.325Z,6.00
2019-03-10T16:10:23.331Z,6.10
2019-03-10T16:12:53.476Z,6.10
2019-03-10T16:15:30.396Z,6.10
2019-03-10T16:17:59.640Z,6.00
2019-03-10T16:20:28.991Z,6.00
2019-03-10T16:22:58.201Z,6.10
2019-03-10T16:25:29.355Z,6.10
2019-03-10T16:27:58.536Z,6.20
2019-03-10T16:30:28.675Z,6.30
2019-03-10T16:32:57.917Z,6.30
2019-03-10T16:35:28.293Z,6.40
2019-03-10T16:37:57.526Z,6.50
2019-03-10T16:40:26.723Z,6.60
2019-03-10T16:42:55.899Z,6.50
2019-03-10T16:45:28.525Z,6.50
2019-03-10T16:47:57.997Z,6.60
2019-03-10T16:50:28.540Z,6.60
2019-03-10T16:52:57.768Z,6.60
2019-03-10T16:55:27.012Z,6.70
2019-03-10T16:57:56.182Z,6.80
2019-03-10T17:00:25.468Z,6.90
2019-03-10T17:02:54.695Z,6.90
2019-03-10T17:05:23.948Z,6.90
2019-03-10T17:07:53.111Z,6.70
2019-03-10T17:10:23.559Z,6.60
2019-03-10T17:12:52.843Z,6.40
2019-03-10T17:15:25.488Z,6.20
2019-03-10T17:17:54.709Z,6.10
2019-03-10T17:20:24.935Z,6.00
2019-03-10T17:22:54.197Z,5.90
2019-03-10T17:25:23.450Z,5.80
2019-03-10T17:27:52.696Z,5.70
2019-03-10T17:30:26.046Z,5.60
2019-03-10T17:32:55.258Z,5.50
2019-03-10T17:35:24.416Z,5.40
2019-03-10T17:37:53.688Z,5.40
2019-03-10T17:40:25.873Z,5.40
2019-03-10T17:42:55.065Z,5.40
2019-03-10T17:45:25.359Z,5.30
2019-03-10T17:47:54.612Z,5.30
2019-03-10T17:50:23.806Z,5.30
2019-03-10T17:52:53.112Z,5.20
2019-03-10T17:55:23.019Z,5.10
2019-03-10T17:57:52.335Z,5.10
2019-03-10T18:00:26.317Z,5.20
2019-03-10T18:02:55.600Z,5.30
2019-03-10T18:05:24.767Z,5.30
2019-03-10T18:07:55.592Z,5.30
2019-03-10T18:10:25.749Z,5.30
2019-03-10T18:12:55.033Z,5.30
2019-03-10T18:15:24.385Z,5.40
2019-03-10T18:17:53.608Z,5.40
2019-03-10T18:20:23.838Z,5.40
2019-03-10T18:22:53.226Z,5.40
2019-03-10T18:25:22.605Z,5.50
2019-03-10T18:27:51.968Z,5.60
2019-03-10T18:30:25.594Z,5.30
2019-03-10T18:32:55.221Z,4.90
2019-03-10T18:35:27.260Z,4.50
2019-03-10T18:37:58.023Z,4.20
2019-03-10T18:40:28.023Z,4.00
2019-03-10T18:42:57.360Z,3.90
2019-03-10T18:45:26.600Z,3.80
2019-03-10T18:47:55.833Z,3.90
2019-03-10T18:50:26.060Z,4.10
2019-03-10T18:52:56.331Z,4.10
2019-03-10T18:55:25.689Z,4.20
2019-03-10T18:57:54.956Z,4.20
2019-03-10T19:00:31.523Z,4.30
2019-03-10T19:03:01.073Z,4.30
2019-03-10T19:05:30.369Z,4.30
2019-03-10T19:07:59.905Z,4.30
2019-03-10T19:10:29.151Z,4.20
2019-03-10T19:12:58.484Z,4.30
2019-03-10T19:15:28.609Z,4.40
2019-03-10T19:17:57.840Z,4.40
2019-03-10T19:20:27.062Z,4.50
2019-03-10T19:22:56.251Z,4.50
2019-03-10T19:25:25.469Z,4.60
2019-03-10T19:27:54.654Z,4.50
2019-03-10T19:30:24.608Z,4.70
2019-03-10T19:32:54.002Z,4.60
2019-03-10T19:35:23.562Z,4.60
2019-03-10T19:37:52.882Z,4.60
2019-03-10T19:40:23.428Z,4.60
2019-03-10T19:42:53.045Z,4.60
2019-03-10T19:45:23.803Z,4.70
2019-03-10T19:47:54.900Z,4.90
2019-03-10T19:50:27.626Z,5.00
2019-03-10T19:52:57.396Z,4.90
2019-03-10T19:55:26.904Z,4.90
2019-03-10T19:57:56.284Z,4.90
2019-03-10T20:00:27.295Z,5.00
2019-03-10T20:02:57.110Z,5.10
2019-03-10T20:05:26.540Z,5.10
2019-03-10T20:07:56.683Z,5.10
2019-03-10T20:10:25.980Z,5.20
2019-03-10T20:12:55.383Z,5.20
2019-03-10T20:15:28.776Z,5.10
2019-03-10T20:17:59.591Z,5.00
2019-03-10T20:20:30.630Z,4.90
2019-03-10T20:23:01.122Z,4.90
2019-03-10T20:25:31.387Z,4.90
2019-03-10T20:28:00.734Z,4.90
2019-03-10T20:30:31.197Z,5.00
2019-03-10T20:33:00.412Z,5.00
2019-03-10T20:35:30.491Z,5.00
2019-03-10T20:37:59.782Z,5.10
2019-03-10T20:40:29.504Z,5.20
2019-03-10T20:42:58.797Z,5.30
2019-03-10T20:45:29.711Z,5.50
2019-03-10T20:47:59.284Z,5.90
2019-03-10T20:50:28.467Z,6.10
2019-03-10T20:52:57.899Z,6.30
2019-03-10T20:55:27.147Z,6.40
2019-03-10T20:57:56.561Z,6.50
2019-03-10T21:00:29.757Z,6.40
2019-03-10T21:02:59.389Z,6.30
2019-03-10T21:05:28.649Z,6.30
2019-03-10T21:07:57.989Z,6.30
2019-03-10T21:10:40.013Z,6.30
2019-03-10T21:13:09.264Z,6.30
2019-03-10T21:15:38.664Z,6.40
2019-03-10T21:18:07.889Z,6.40
2019-03-10T21:20:37.294Z,6.40
2019-03-10T21:23:08.350Z,6.30
2019-03-10T21:25:37.547Z,6.30
2019-03-10T21:28:08.548Z,6.40
2019-03-10T21:30:37.938Z,6.30
2019-03-10T21:33:07.268Z,6.30
2019-03-10T21:35:36.565Z,6.30
2019-03-10T21:38:05.868Z,6.40
2019-03-10T21:40:35.152Z,6.40
2019-03-10T21:43:04.469Z,6.50
2019-03-10T21:45:33.957Z,6.50
2019-03-10T21:48:04.765Z,6.50
2019-03-10T21:50:34.039Z,6.40
2019-03-10T21:53:03.293Z,6.50
2019-03-10T21:55:32.555Z,6.40
2019-03-10T21:58:02.121Z,6.30
2019-03-10T22:00:31.323Z,6.10
2019-03-10T22:03:00.631Z,5.90
2019-03-10T22:05:29.883Z,5.70
2019-03-10T22:07:59.157Z,5.70
2019-03-10T22:10:28.474Z,5.70
2019-03-10T22:12:57.771Z,5.80
2019-03-10T22:15:27.334Z,5.90
2019-03-10T22:17:56.608Z,6.00
2019-03-10T22:20:27.622Z,6.00
2019-03-10T22:22:56.962Z,6.00
2019-03-10T22:25:27.057Z,6.10
2019-03-10T22:27:57.926Z,6.20
2019-03-10T22:30:27.694Z,6.30
2019-03-10T22:32:56.988Z,6.40
2019-03-10T22:35:26.264Z,6.50
2019-03-10T22:37:55.488Z,6.40
2019-03-10T22:40:24.782Z,6.00
2019-03-10T22:42:53.999Z,5.70
2019-03-10T22:45:23.208Z,5.70
2019-03-10T22:47:52.497Z,5.60
2019-03-10T22:50:21.713Z,5.60
2019-03-10T22:52:51.049Z,5.60
2019-03-10T22:55:20.372Z,5.50
2019-03-10T22:57:49.569Z,5.40
2019-03-10T23:00:24.981Z,5.40
2019-03-10T23:02:55.790Z,5.50
2019-03-10T23:05:24.979Z,5.50
2019-03-10T23:07:54.273Z,5.30
2019-03-10T23:10:23.484Z,5.20
2019-03-10T23:12:52.839Z,5.20
2019-03-10T23:15:22.140Z,5.00
2019-03-10T23:17:51.575Z,5.00
2019-03-10T23:20:21.101Z,4.90
2019-03-10T23:22:50.594Z,5.00
2019-03-10T23:25:20.060Z,5.00
2019-03-10T23:27:49.318Z,5.00
2019-03-10T23:30:19.165Z,5.00
2019-03-10T23:32:48.456Z,4.90
2019-03-10T23:35:17.667Z,4.80
2019-03-10T23:37:46.905Z,4.70
2019-03-10T23:40:17.330Z,4.60
2019-03-10T23:42:46.786Z,4.50
2019-03-10T23:45:17.006Z,4.40
2019-03-10T23:47:47.019Z,4.40
2019-03-10T23:50:18.915Z,4.40
2019-03-10T23:52:48.158Z,4.40
2019-03-10T23:55:18.990Z,4.40
2019-03-10T23:57:48.167Z,4.40
